sensor_id;sensor_type;location;lat;lon;timestamp;P1;durP1;ratioP1;P2;durP2;ratioP2
11761;SDS011;5938;47.098;15.474;2022-11-15T00:01:42;102.67;;;54.13;;
11761;SDS011;5938;47.098;15.474;2022-11-15T00:05:46;104.03;;;53.37;;
11761;SDS011;5938;47.098;15.474;2022-11-15T00:09:51;109.43;;;55.40;;
11761;SDS011;5938;47.098;15.474;2022-11-15T00:13:55;104.57;;;54.60;;
11761;SDS011;5938;47.098;15.474;2022-11-15T00:17:58;107.47;;;54.40;;
11761;SDS011;5938;47.098;15.474;2022-11-15T00:22:02;108.17;;;52.67;;
11761;SDS011;5938;47.098;15.474;2022-11-15T00:26:08;98.10;;;52.37;;
11761;SDS011;5938;47.098;15.474;2022-11-15T00:30:15;97.33;;;50.87;;
11761;SDS011;5938;47.098;15.474;2022-11-15T00:34:19;97.70;;;52.13;;
11761;SDS011;5938;47.098;15.474;2022-11-15T00:38:22;103.77;;;52.50;;
11761;SDS011;5938;47.098;15.474;2022-11-15T00:42:27;92.90;;;48.53;;
11761;SDS011;5938;47.098;15.474;2022-11-15T00:46:30;92.33;;;48.67;;
11761;SDS011;5938;47.098;15.474;2022-11-15T00:50:34;103.43;;;48.43;;
11761;SDS011;5938;47.098;15.474;2022-11-15T00:54:37;98.40;;;50.50;;
11761;SDS011;5938;47.098;15.474;2022-11-15T00:58:42;107.70;;;49.43;;
11761;SDS011;5938;47.098;15.474;2022-11-15T01:02:46;113.47;;;52.37;;
11761;SDS011;5938;47.098;15.474;2022-11-15T01:06:49;88.70;;;49.43;;
11761;SDS011;5938;47.098;15.474;2022-11-15T01:10:53;103.97;;;52.80;;
11761;SDS011;5938;47.098;15.474;2022-11-15T01:14:57;109.37;;;57.13;;
11761;SDS011;5938;47.098;15.474;2022-11-15T01:19:01;116.13;;;57.63;;
11761;SDS011;5938;47.098;15.474;2022-11-15T01:23:06;100.70;;;53.47;;
11761;SDS011;5938;47.098;15.474;2022-11-15T01:27:09;105.73;;;52.90;;
11761;SDS011;5938;47.098;15.474;2022-11-15T01:31:15;107.27;;;51.50;;
11761;SDS011;5938;47.098;15.474;2022-11-15T01:35:19;110.90;;;52.30;;
11761;SDS011;5938;47.098;15.474;2022-11-15T01:39:23;114.67;;;57.03;;
11761;SDS011;5938;47.098;15.474;2022-11-15T01:43:27;109.50;;;55.57;;
11761;SDS011;5938;47.098;15.474;2022-11-15T01:47:35;119.63;;;57.50;;
11761;SDS011;5938;47.098;15.474;2022-11-15T01:51:41;126.70;;;55.73;;
11761;SDS011;5938;47.098;15.474;2022-11-15T01:55:44;104.90;;;53.57;;
11761;SDS011;5938;47.098;15.474;2022-11-15T01:59:47;128.47;;;61.90;;
11761;SDS011;5938;47.098;15.474;2022-11-15T02:03:54;117.07;;;55.33;;
11761;SDS011;5938;47.098;15.474;2022-11-15T02:08:01;106.20;;;51.70;;
11761;SDS011;5938;47.098;15.474;2022-11-15T02:12:04;100.37;;;51.37;;
11761;SDS011;5938;47.098;15.474;2022-11-15T02:16:12;120.90;;;54.57;;
11761;SDS011;5938;47.098;15.474;2022-11-15T02:20:29;102.30;;;50.10;;
11761;SDS011;5938;47.098;15.474;2022-11-15T02:25:09;113.70;;;54.60;;
11761;SDS011;5938;47.098;15.474;2022-11-15T02:29:34;104.20;;;52.63;;
11761;SDS011;5938;47.098;15.474;2022-11-15T02:33:52;116.83;;;52.27;;
11761;SDS011;5938;47.098;15.474;2022-11-15T02:38:04;108.27;;;49.53;;
11761;SDS011;5938;47.098;15.474;2022-11-15T02:42:13;111.30;;;52.27;;
11761;SDS011;5938;47.098;15.474;2022-11-15T02:46:40;105.67;;;50.47;;
11761;SDS011;5938;47.098;15.474;2022-11-15T02:51:06;94.57;;;50.50;;
11761;SDS011;5938;47.098;15.474;2022-11-15T02:55:25;111.43;;;51.23;;
11761;SDS011;5938;47.098;15.474;2022-11-15T02:59:34;96.67;;;48.93;;
11761;SDS011;5938;47.098;15.474;2022-11-15T03:04:02;110.13;;;52.97;;
11761;SDS011;5938;47.098;15.474;2022-11-15T03:08:22;115.93;;;53.87;;
11761;SDS011;5938;47.098;15.474;2022-11-15T03:12:34;113.87;;;51.40;;
11761;SDS011;5938;47.098;15.474;2022-11-15T03:16:44;106.03;;;52.23;;
11761;SDS011;5938;47.098;15.474;2022-11-15T03:20:51;94.87;;;49.17;;
11761;SDS011;5938;47.098;15.474;2022-11-15T03:24:58;107.47;;;52.07;;
11761;SDS011;5938;47.098;15.474;2022-11-15T03:29:07;105.03;;;51.97;;
11761;SDS011;5938;47.098;15.474;2022-11-15T03:33:16;87.63;;;48.90;;
11761;SDS011;5938;47.098;15.474;2022-11-15T03:37:22;85.97;;;46.97;;
11761;SDS011;5938;47.098;15.474;2022-11-15T03:41:41;104.40;;;48.17;;
11761;SDS011;5938;47.098;15.474;2022-11-15T03:45:49;84.80;;;44.67;;
11761;SDS011;5938;47.098;15.474;2022-11-15T03:49:57;106.33;;;46.07;;
11761;SDS011;5938;47.098;15.474;2022-11-15T03:54:04;90.70;;;43.70;;
11761;SDS011;5938;47.098;15.474;2022-11-15T03:58:08;86.73;;;44.70;;
11761;SDS011;5938;47.098;15.474;2022-11-15T04:02:12;85.80;;;44.77;;
11761;SDS011;5938;47.098;15.474;2022-11-15T04:06:16;83.53;;;43.60;;
11761;SDS011;5938;47.098;15.474;2022-11-15T04:10:19;94.23;;;45.13;;
11761;SDS011;5938;47.098;15.474;2022-11-15T04:14:24;131.10;;;50.57;;
11761;SDS011;5938;47.098;15.474;2022-11-15T04:18:27;104.40;;;47.07;;
11761;SDS011;5938;47.098;15.474;2022-11-15T04:22:31;77.00;;;42.97;;
11761;SDS011;5938;47.098;15.474;2022-11-15T04:26:51;96.87;;;47.17;;
11761;SDS011;5938;47.098;15.474;2022-11-15T04:30:56;94.87;;;48.17;;
11761;SDS011;5938;47.098;15.474;2022-11-15T04:34:59;118.20;;;48.73;;
11761;SDS011;5938;47.098;15.474;2022-11-15T04:39:03;102.90;;;49.87;;
11761;SDS011;5938;47.098;15.474;2022-11-15T04:43:06;95.43;;;50.17;;
11761;SDS011;5938;47.098;15.474;2022-11-15T04:47:11;100.77;;;46.57;;
11761;SDS011;5938;47.098;15.474;2022-11-15T04:51:15;103.57;;;48.87;;
11761;SDS011;5938;47.098;15.474;2022-11-15T04:55:18;94.60;;;47.30;;
11761;SDS011;5938;47.098;15.474;2022-11-15T04:59:22;90.23;;;46.90;;
11761;SDS011;5938;47.098;15.474;2022-11-15T05:03:26;103.07;;;46.50;;
11761;SDS011;5938;47.098;15.474;2022-11-15T05:07:47;85.03;;;47.10;;
11761;SDS011;5938;47.098;15.474;2022-11-15T05:11:50;105.13;;;46.73;;
11761;SDS011;5938;47.098;15.474;2022-11-15T05:15:54;103.17;;;47.70;;
11761;SDS011;5938;47.098;15.474;2022-11-15T05:19:58;107.00;;;49.17;;
11761;SDS011;5938;47.098;15.474;2022-11-15T05:24:02;118.10;;;56.10;;
11761;SDS011;5938;47.098;15.474;2022-11-15T05:28:06;137.73;;;52.97;;
11761;SDS011;5938;47.098;15.474;2022-11-15T05:32:09;104.80;;;49.40;;
11761;SDS011;5938;47.098;15.474;2022-11-15T05:36:17;88.27;;;46.80;;
11761;SDS011;5938;47.098;15.474;2022-11-15T05:40:24;94.70;;;45.53;;
11761;SDS011;5938;47.098;15.474;2022-11-15T05:44:27;122.37;;;54.37;;
11761;SDS011;5938;47.098;15.474;2022-11-15T05:48:31;98.83;;;47.17;;
11761;SDS011;5938;47.098;15.474;2022-11-15T05:52:37;88.20;;;47.20;;
11761;SDS011;5938;47.098;15.474;2022-11-15T05:56:41;101.90;;;48.87;;
11761;SDS011;5938;47.098;15.474;2022-11-15T06:00:45;126.87;;;52.63;;
11761;SDS011;5938;47.098;15.474;2022-11-15T06:04:48;108.73;;;49.20;;
11761;SDS011;5938;47.098;15.474;2022-11-15T06:08:53;83.67;;;46.57;;
11761;SDS011;5938;47.098;15.474;2022-11-15T06:12:56;115.83;;;50.53;;
11761;SDS011;5938;47.098;15.474;2022-11-15T06:17:00;96.23;;;49.00;;
11761;SDS011;5938;47.098;15.474;2022-11-15T06:21:11;107.60;;;50.20;;
11761;SDS011;5938;47.098;15.474;2022-11-15T06:25:16;123.77;;;57.70;;
11761;SDS011;5938;47.098;15.474;2022-11-15T06:29:19;126.80;;;53.60;;
11761;SDS011;5938;47.098;15.474;2022-11-15T06:33:23;121.53;;;54.33;;
11761;SDS011;5938;47.098;15.474;2022-11-15T06:37:26;162.83;;;58.83;;
11761;SDS011;5938;47.098;15.474;2022-11-15T06:41:33;126.80;;;54.30;;
11761;SDS011;5938;47.098;15.474;2022-11-15T06:45:37;115.33;;;51.90;;
11761;SDS011;5938;47.098;15.474;2022-11-15T06:49:40;104.43;;;49.40;;
11761;SDS011;5938;47.098;15.474;2022-11-15T06:53:44;106.00;;;50.10;;
11761;SDS011;5938;47.098;15.474;2022-11-15T06:57:50;117.43;;;52.63;;
11761;SDS011;5938;47.098;15.474;2022-11-15T07:01:54;101.83;;;49.90;;
11761;SDS011;5938;47.098;15.474;2022-11-15T07:05:58;106.83;;;51.23;;
11761;SDS011;5938;47.098;15.474;2022-11-15T07:10:07;100.00;;;48.37;;
11761;SDS011;5938;47.098;15.474;2022-11-15T07:14:13;111.73;;;51.53;;
11761;SDS011;5938;47.098;15.474;2022-11-15T07:18:16;112.10;;;48.50;;
11761;SDS011;5938;47.098;15.474;2022-11-15T07:22:19;112.30;;;49.40;;
11761;SDS011;5938;47.098;15.474;2022-11-15T07:26:22;130.37;;;51.63;;
11761;SDS011;5938;47.098;15.474;2022-11-15T07:30:27;95.83;;;47.13;;
11761;SDS011;5938;47.098;15.474;2022-11-15T07:34:31;144.43;;;52.67;;
11761;SDS011;5938;47.098;15.474;2022-11-15T07:38:35;134.93;;;54.30;;
11761;SDS011;5938;47.098;15.474;2022-11-15T07:42:43;122.57;;;50.90;;
11761;SDS011;5938;47.098;15.474;2022-11-15T07:46:56;110.77;;;52.70;;
11761;SDS011;5938;47.098;15.474;2022-11-15T07:51:00;129.07;;;53.03;;
11761;SDS011;5938;47.098;15.474;2022-11-15T07:55:04;101.27;;;46.10;;
11761;SDS011;5938;47.098;15.474;2022-11-15T07:59:08;113.37;;;49.07;;
11761;SDS011;5938;47.098;15.474;2022-11-15T08:03:13;100.10;;;48.57;;
11761;SDS011;5938;47.098;15.474;2022-11-15T08:07:18;110.57;;;48.50;;
11761;SDS011;5938;47.098;15.474;2022-11-15T08:11:21;100.13;;;45.77;;
11761;SDS011;5938;47.098;15.474;2022-11-15T08:15:24;85.07;;;44.70;;
11761;SDS011;5938;47.098;15.474;2022-11-15T08:19:30;77.07;;;40.63;;
11761;SDS011;5938;47.098;15.474;2022-11-15T08:23:33;91.23;;;44.40;;
11761;SDS011;5938;47.098;15.474;2022-11-15T08:27:36;89.27;;;41.07;;
11761;SDS011;5938;47.098;15.474;2022-11-15T08:31:40;78.67;;;41.50;;
11761;SDS011;5938;47.098;15.474;2022-11-15T08:35:46;92.37;;;44.07;;
11761;SDS011;5938;47.098;15.474;2022-11-15T08:40:20;75.57;;;38.67;;
11761;SDS011;5938;47.098;15.474;2022-11-15T08:44:24;71.97;;;39.00;;
11761;SDS011;5938;47.098;15.474;2022-11-15T08:48:28;70.63;;;37.33;;
11761;SDS011;5938;47.098;15.474;2022-11-15T08:52:34;67.40;;;36.80;;
11761;SDS011;5938;47.098;15.474;2022-11-15T08:56:38;57.53;;;33.83;;
11761;SDS011;5938;47.098;15.474;2022-11-15T09:00:41;56.17;;;34.83;;
11761;SDS011;5938;47.098;15.474;2022-11-15T09:04:45;65.37;;;37.10;;
11761;SDS011;5938;47.098;15.474;2022-11-15T09:08:49;62.57;;;37.57;;
11761;SDS011;5938;47.098;15.474;2022-11-15T09:12:53;55.07;;;35.30;;
11761;SDS011;5938;47.098;15.474;2022-11-15T09:16:56;63.83;;;35.37;;
11761;SDS011;5938;47.098;15.474;2022-11-15T09:21:00;49.13;;;32.20;;
11761;SDS011;5938;47.098;15.474;2022-11-15T09:25:07;40.70;;;28.23;;
11761;SDS011;5938;47.098;15.474;2022-11-15T09:29:11;43.20;;;31.40;;
11761;SDS011;5938;47.098;15.474;2022-11-15T09:33:15;46.87;;;30.50;;
11761;SDS011;5938;47.098;15.474;2022-11-15T09:37:18;77.40;;;38.67;;
11761;SDS011;5938;47.098;15.474;2022-11-15T09:45:56;69.57;;;38.67;;
11761;SDS011;5938;47.098;15.474;2022-11-15T09:50:10;79.27;;;41.77;;
11761;SDS011;5938;47.098;15.474;2022-11-15T09:54:18;79.40;;;41.47;;
11761;SDS011;5938;47.098;15.474;2022-11-15T09:58:52;73.97;;;39.70;;
11761;SDS011;5938;47.098;15.474;2022-11-15T10:03:08;86.33;;;42.33;;
11761;SDS011;5938;47.098;15.474;2022-11-15T10:07:15;79.00;;;41.20;;
11761;SDS011;5938;47.098;15.474;2022-11-15T10:11:22;81.13;;;42.10;;
11761;SDS011;5938;47.098;15.474;2022-11-15T10:15:44;80.07;;;42.80;;
11761;SDS011;5938;47.098;15.474;2022-11-15T10:19:54;99.57;;;45.23;;
11761;SDS011;5938;47.098;15.474;2022-11-15T10:24:10;94.27;;;47.30;;
11761;SDS011;5938;47.098;15.474;2022-11-15T10:28:15;78.67;;;44.90;;
11761;SDS011;5938;47.098;15.474;2022-11-15T10:32:21;99.60;;;47.97;;
11761;SDS011;5938;47.098;15.474;2022-11-15T10:36:25;91.73;;;47.33;;
11761;SDS011;5938;47.098;15.474;2022-11-15T10:40:30;97.43;;;48.10;;
11761;SDS011;5938;47.098;15.474;2022-11-15T10:44:42;95.53;;;46.30;;
11761;SDS011;5938;47.098;15.474;2022-11-15T10:48:48;83.67;;;42.50;;
11761;SDS011;5938;47.098;15.474;2022-11-15T10:52:51;83.10;;;42.87;;
11761;SDS011;5938;47.098;15.474;2022-11-15T10:56:55;80.93;;;40.87;;
11761;SDS011;5938;47.098;15.474;2022-11-15T11:01:14;78.13;;;41.37;;
11761;SDS011;5938;47.098;15.474;2022-11-15T11:05:27;69.87;;;37.27;;
11761;SDS011;5938;47.098;15.474;2022-11-15T11:09:41;70.93;;;38.77;;
11761;SDS011;5938;47.098;15.474;2022-11-15T11:13:44;84.87;;;41.70;;
11761;SDS011;5938;47.098;15.474;2022-11-15T11:17:51;74.03;;;38.73;;
11761;SDS011;5938;47.098;15.474;2022-11-15T11:22:05;74.23;;;39.30;;
11761;SDS011;5938;47.098;15.474;2022-11-15T11:26:26;77.77;;;39.70;;
11761;SDS011;5938;47.098;15.474;2022-11-15T11:30:41;71.43;;;40.00;;
11761;SDS011;5938;47.098;15.474;2022-11-15T11:34:52;75.60;;;41.70;;
11761;SDS011;5938;47.098;15.474;2022-11-15T11:39:17;65.13;;;38.30;;
11761;SDS011;5938;47.098;15.474;2022-11-15T11:43:28;61.57;;;35.67;;
11761;SDS011;5938;47.098;15.474;2022-11-15T11:47:40;57.47;;;35.70;;
11761;SDS011;5938;47.098;15.474;2022-11-15T11:51:50;73.33;;;39.30;;
11761;SDS011;5938;47.098;15.474;2022-11-15T11:56:01;57.53;;;35.80;;
11761;SDS011;5938;47.098;15.474;2022-11-15T12:00:12;61.43;;;33.83;;
11761;SDS011;5938;47.098;15.474;2022-11-15T12:04:21;51.80;;;32.10;;
11761;SDS011;5938;47.098;15.474;2022-11-15T12:08:31;69.23;;;33.97;;
11761;SDS011;5938;47.098;15.474;2022-11-15T12:12:47;59.37;;;33.17;;
11761;SDS011;5938;47.098;15.474;2022-11-15T12:16:56;60.43;;;34.77;;
11761;SDS011;5938;47.098;15.474;2022-11-15T12:21:01;55.63;;;31.80;;
11761;SDS011;5938;47.098;15.474;2022-11-15T12:25:14;63.87;;;33.97;;
11761;SDS011;5938;47.098;15.474;2022-11-15T12:29:23;52.27;;;32.03;;
11761;SDS011;5938;47.098;15.474;2022-11-15T12:33:34;61.37;;;35.17;;
11761;SDS011;5938;47.098;15.474;2022-11-15T12:51:07;46.83;;;30.03;;
11761;SDS011;5938;47.098;15.474;2022-11-15T12:59:48;41.00;;;27.27;;
11761;SDS011;5938;47.098;15.474;2022-11-15T13:08:40;53.13;;;28.50;;
11761;SDS011;5938;47.098;15.474;2022-11-15T13:12:56;44.47;;;28.37;;
11761;SDS011;5938;47.098;15.474;2022-11-15T13:17:00;41.10;;;27.90;;
11761;SDS011;5938;47.098;15.474;2022-11-15T13:21:18;48.93;;;29.40;;
11761;SDS011;5938;47.098;15.474;2022-11-15T13:25:46;46.40;;;30.53;;
11761;SDS011;5938;47.098;15.474;2022-11-15T13:29:58;50.87;;;27.53;;
11761;SDS011;5938;47.098;15.474;2022-11-15T13:34:26;47.03;;;30.47;;
11761;SDS011;5938;47.098;15.474;2022-11-15T13:38:57;50.33;;;29.77;;
11761;SDS011;5938;47.098;15.474;2022-11-15T13:43:13;44.73;;;27.17;;
11761;SDS011;5938;47.098;15.474;2022-11-15T13:47:29;56.03;;;31.00;;
11761;SDS011;5938;47.098;15.474;2022-11-15T13:51:36;43.23;;;29.27;;
11761;SDS011;5938;47.098;15.474;2022-11-15T13:55:44;45.60;;;27.13;;
11761;SDS011;5938;47.098;15.474;2022-11-15T13:59:48;45.30;;;28.67;;
11761;SDS011;5938;47.098;15.474;2022-11-15T14:03:55;45.57;;;27.40;;
11761;SDS011;5938;47.098;15.474;2022-11-15T14:08:01;51.30;;;29.07;;
11761;SDS011;5938;47.098;15.474;2022-11-15T14:12:26;53.07;;;29.60;;
11761;SDS011;5938;47.098;15.474;2022-11-15T14:16:33;43.37;;;28.57;;
11761;SDS011;5938;47.098;15.474;2022-11-15T14:20:38;40.00;;;27.37;;
11761;SDS011;5938;47.098;15.474;2022-11-15T14:24:42;48.47;;;27.63;;
11761;SDS011;5938;47.098;15.474;2022-11-15T14:28:48;53.27;;;28.63;;
11761;SDS011;5938;47.098;15.474;2022-11-15T14:32:52;40.00;;;26.90;;
11761;SDS011;5938;47.098;15.474;2022-11-15T14:36:55;42.53;;;26.67;;
11761;SDS011;5938;47.098;15.474;2022-11-15T14:40:58;41.43;;;25.67;;
11761;SDS011;5938;47.098;15.474;2022-11-15T14:45:04;40.23;;;24.60;;
11761;SDS011;5938;47.098;15.474;2022-11-15T14:49:14;43.33;;;25.37;;
11761;SDS011;5938;47.098;15.474;2022-11-15T14:53:17;37.57;;;24.40;;
11761;SDS011;5938;47.098;15.474;2022-11-15T14:57:22;36.73;;;25.67;;
11761;SDS011;5938;47.098;15.474;2022-11-15T15:01:26;43.70;;;25.90;;
11761;SDS011;5938;47.098;15.474;2022-11-15T15:05:31;40.43;;;24.70;;
11761;SDS011;5938;47.098;15.474;2022-11-15T15:09:36;43.90;;;26.60;;
11761;SDS011;5938;47.098;15.474;2022-11-15T15:13:39;40.90;;;26.50;;
11761;SDS011;5938;47.098;15.474;2022-11-15T15:17:44;51.57;;;27.53;;
11761;SDS011;5938;47.098;15.474;2022-11-15T15:21:47;41.40;;;26.33;;
11761;SDS011;5938;47.098;15.474;2022-11-15T15:25:50;43.10;;;27.47;;
11761;SDS011;5938;47.098;15.474;2022-11-15T15:29:54;40.50;;;25.90;;
11761;SDS011;5938;47.098;15.474;2022-11-15T15:33:59;41.73;;;27.20;;
11761;SDS011;5938;47.098;15.474;2022-11-15T15:38:03;41.47;;;25.20;;
11761;SDS011;5938;47.098;15.474;2022-11-15T15:42:07;38.00;;;24.40;;
11761;SDS011;5938;47.098;15.474;2022-11-15T15:46:10;38.80;;;23.17;;
11761;SDS011;5938;47.098;15.474;2022-11-15T15:50:20;38.30;;;24.67;;
11761;SDS011;5938;47.098;15.474;2022-11-15T15:54:25;35.17;;;24.80;;
11761;SDS011;5938;47.098;15.474;2022-11-15T15:58:28;43.40;;;26.03;;
11761;SDS011;5938;47.098;15.474;2022-11-15T16:02:35;45.53;;;26.07;;
11761;SDS011;5938;47.098;15.474;2022-11-15T16:06:46;43.90;;;27.10;;
11761;SDS011;5938;47.098;15.474;2022-11-15T16:10:56;44.43;;;26.53;;
11761;SDS011;5938;47.098;15.474;2022-11-15T16:15:00;46.47;;;27.10;;
11761;SDS011;5938;47.098;15.474;2022-11-15T16:19:04;39.80;;;27.10;;
11761;SDS011;5938;47.098;15.474;2022-11-15T16:23:15;43.83;;;26.90;;
11761;SDS011;5938;47.098;15.474;2022-11-15T16:27:24;36.83;;;22.50;;
11761;SDS011;5938;47.098;15.474;2022-11-15T16:31:28;39.33;;;26.40;;
11761;SDS011;5938;47.098;15.474;2022-11-15T16:35:31;39.20;;;23.97;;
11761;SDS011;5938;47.098;15.474;2022-11-15T16:39:36;43.30;;;25.30;;
11761;SDS011;5938;47.098;15.474;2022-11-15T16:43:41;40.93;;;25.47;;
11761;SDS011;5938;47.098;15.474;2022-11-15T16:47:48;38.97;;;23.87;;
11761;SDS011;5938;47.098;15.474;2022-11-15T16:51:56;38.67;;;24.03;;
11761;SDS011;5938;47.098;15.474;2022-11-15T16:56:13;36.77;;;24.10;;
11761;SDS011;5938;47.098;15.474;2022-11-15T17:00:22;37.80;;;21.77;;
11761;SDS011;5938;47.098;15.474;2022-11-15T17:04:27;40.90;;;25.80;;
11761;SDS011;5938;47.098;15.474;2022-11-15T17:08:34;35.17;;;22.37;;
11761;SDS011;5938;47.098;15.474;2022-11-15T17:12:39;38.63;;;24.07;;
11761;SDS011;5938;47.098;15.474;2022-11-15T17:16:43;41.60;;;27.53;;
11761;SDS011;5938;47.098;15.474;2022-11-15T17:20:49;37.00;;;29.70;;
11761;SDS011;5938;47.098;15.474;2022-11-15T17:24:53;37.83;;;24.50;;
11761;SDS011;5938;47.098;15.474;2022-11-15T17:28:58;40.27;;;27.70;;
11761;SDS011;5938;47.098;15.474;2022-11-15T17:33:02;41.80;;;26.27;;
11761;SDS011;5938;47.098;15.474;2022-11-15T17:37:09;38.13;;;24.53;;
11761;SDS011;5938;47.098;15.474;2022-11-15T17:41:15;42.53;;;24.93;;
11761;SDS011;5938;47.098;15.474;2022-11-15T17:45:20;36.30;;;23.20;;
11761;SDS011;5938;47.098;15.474;2022-11-15T17:49:25;40.80;;;24.50;;
11761;SDS011;5938;47.098;15.474;2022-11-15T17:53:43;41.30;;;25.50;;
11761;SDS011;5938;47.098;15.474;2022-11-15T17:57:49;42.80;;;25.60;;
11761;SDS011;5938;47.098;15.474;2022-11-15T18:01:55;40.23;;;24.50;;
11761;SDS011;5938;47.098;15.474;2022-11-15T18:05:59;39.80;;;24.37;;
11761;SDS011;5938;47.098;15.474;2022-11-15T18:10:04;36.10;;;24.17;;
11761;SDS011;5938;47.098;15.474;2022-11-15T18:14:12;35.93;;;25.20;;
11761;SDS011;5938;47.098;15.474;2022-11-15T18:18:19;39.47;;;26.40;;
11761;SDS011;5938;47.098;15.474;2022-11-15T18:22:24;38.17;;;24.60;;
11761;SDS011;5938;47.098;15.474;2022-11-15T18:26:33;39.30;;;24.70;;
11761;SDS011;5938;47.098;15.474;2022-11-15T18:30:37;33.90;;;22.27;;
11761;SDS011;5938;47.098;15.474;2022-11-15T18:34:43;41.50;;;24.00;;
11761;SDS011;5938;47.098;15.474;2022-11-15T18:38:47;36.10;;;23.10;;
11761;SDS011;5938;47.098;15.474;2022-11-15T18:42:56;46.60;;;25.40;;
11761;SDS011;5938;47.098;15.474;2022-11-15T18:47:00;38.03;;;25.10;;
11761;SDS011;5938;47.098;15.474;2022-11-15T18:51:11;36.80;;;23.20;;
11761;SDS011;5938;47.098;15.474;2022-11-15T18:55:19;43.87;;;25.70;;
11761;SDS011;5938;47.098;15.474;2022-11-15T18:59:25;41.57;;;26.87;;
11761;SDS011;5938;47.098;15.474;2022-11-15T19:03:36;36.37;;;22.60;;
11761;SDS011;5938;47.098;15.474;2022-11-15T19:07:48;35.00;;;22.77;;
11761;SDS011;5938;47.098;15.474;2022-11-15T19:11:53;41.53;;;25.17;;
11761;SDS011;5938;47.098;15.474;2022-11-15T19:16:03;47.57;;;27.83;;
11761;SDS011;5938;47.098;15.474;2022-11-15T19:20:15;41.40;;;25.20;;
11761;SDS011;5938;47.098;15.474;2022-11-15T19:24:25;48.40;;;25.47;;
11761;SDS011;5938;47.098;15.474;2022-11-15T19:28:38;43.23;;;26.43;;
11761;SDS011;5938;47.098;15.474;2022-11-15T19:32:46;45.07;;;26.30;;
11761;SDS011;5938;47.098;15.474;2022-11-15T19:36:57;38.87;;;24.73;;
11761;SDS011;5938;47.098;15.474;2022-11-15T19:41:12;43.27;;;25.53;;
11761;SDS011;5938;47.098;15.474;2022-11-15T19:45:20;39.47;;;24.40;;
11761;SDS011;5938;47.098;15.474;2022-11-15T19:49:30;38.53;;;25.80;;
11761;SDS011;5938;47.098;15.474;2022-11-15T19:53:39;47.63;;;27.93;;
11761;SDS011;5938;47.098;15.474;2022-11-15T19:57:48;41.60;;;24.37;;
11761;SDS011;5938;47.098;15.474;2022-11-15T20:01:53;40.03;;;24.47;;
11761;SDS011;5938;47.098;15.474;2022-11-15T20:06:02;40.50;;;25.13;;
11761;SDS011;5938;47.098;15.474;2022-11-15T20:10:16;37.70;;;23.87;;
11761;SDS011;5938;47.098;15.474;2022-11-15T20:14:29;36.63;;;22.70;;
11761;SDS011;5938;47.098;15.474;2022-11-15T20:18:37;29.53;;;22.37;;
11761;SDS011;5938;47.098;15.474;2022-11-15T20:22:43;34.43;;;23.87;;
11761;SDS011;5938;47.098;15.474;2022-11-15T20:26:54;36.83;;;21.00;;
11761;SDS011;5938;47.098;15.474;2022-11-15T20:31:00;37.07;;;23.00;;
11761;SDS011;5938;47.098;15.474;2022-11-15T20:35:05;33.03;;;21.27;;
11761;SDS011;5938;47.098;15.474;2022-11-15T20:39:10;39.23;;;22.23;;
11761;SDS011;5938;47.098;15.474;2022-11-15T20:43:15;35.87;;;22.03;;
11761;SDS011;5938;47.098;15.474;2022-11-15T20:47:22;37.60;;;22.77;;
11761;SDS011;5938;47.098;15.474;2022-11-15T20:51:30;34.43;;;23.60;;
11761;SDS011;5938;47.098;15.474;2022-11-15T20:55:37;34.23;;;22.90;;
11761;SDS011;5938;47.098;15.474;2022-11-15T20:59:42;31.07;;;21.40;;
11761;SDS011;5938;47.098;15.474;2022-11-15T21:03:48;31.20;;;21.93;;
11761;SDS011;5938;47.098;15.474;2022-11-15T21:07:51;30.60;;;21.77;;
11761;SDS011;5938;47.098;15.474;2022-11-15T21:11:55;34.80;;;22.93;;
11761;SDS011;5938;47.098;15.474;2022-11-15T21:16:12;32.00;;;22.73;;
11761;SDS011;5938;47.098;15.474;2022-11-15T21:20:18;37.43;;;22.40;;
11761;SDS011;5938;47.098;15.474;2022-11-15T21:24:22;36.67;;;24.07;;
11761;SDS011;5938;47.098;15.474;2022-11-15T21:28:26;32.40;;;21.60;;
11761;SDS011;5938;47.098;15.474;2022-11-15T21:32:29;38.87;;;24.20;;
11761;SDS011;5938;47.098;15.474;2022-11-15T21:36:34;30.47;;;21.53;;
11761;SDS011;5938;47.098;15.474;2022-11-15T21:40:37;36.23;;;23.47;;
11761;SDS011;5938;47.098;15.474;2022-11-15T21:44:41;40.87;;;24.87;;
11761;SDS011;5938;47.098;15.474;2022-11-15T21:48:44;33.83;;;21.40;;
11761;SDS011;5938;47.098;15.474;2022-11-15T21:52:49;33.43;;;21.57;;
11761;SDS011;5938;47.098;15.474;2022-11-15T21:56:52;34.00;;;23.53;;
11761;SDS011;5938;47.098;15.474;2022-11-15T22:00:55;37.10;;;22.83;;
11761;SDS011;5938;47.098;15.474;2022-11-15T22:05:17;33.10;;;22.13;;
11761;SDS011;5938;47.098;15.474;2022-11-15T22:09:21;33.63;;;23.57;;
11761;SDS011;5938;47.098;15.474;2022-11-15T22:13:25;33.60;;;22.30;;
11761;SDS011;5938;47.098;15.474;2022-11-15T22:17:28;31.10;;;22.20;;
11761;SDS011;5938;47.098;15.474;2022-11-15T22:21:45;37.83;;;23.93;;
11761;SDS011;5938;47.098;15.474;2022-11-15T22:25:50;34.27;;;21.03;;
11761;SDS011;5938;47.098;15.474;2022-11-15T22:29:54;40.20;;;20.57;;
11761;SDS011;5938;47.098;15.474;2022-11-15T22:33:57;33.40;;;23.07;;
11761;SDS011;5938;47.098;15.474;2022-11-15T22:38:00;33.63;;;22.60;;
11761;SDS011;5938;47.098;15.474;2022-11-15T22:42:05;30.10;;;21.60;;
11761;SDS011;5938;47.098;15.474;2022-11-15T22:46:09;37.27;;;23.00;;
11761;SDS011;5938;47.098;15.474;2022-11-15T22:50:12;37.30;;;25.00;;
11761;SDS011;5938;47.098;15.474;2022-11-15T22:54:16;35.40;;;21.77;;
11761;SDS011;5938;47.098;15.474;2022-11-15T22:58:21;33.20;;;23.33;;
11761;SDS011;5938;47.098;15.474;2022-11-15T23:02:25;34.47;;;22.20;;
11761;SDS011;5938;47.098;15.474;2022-11-15T23:06:29;36.43;;;21.93;;
11761;SDS011;5938;47.098;15.474;2022-11-15T23:10:32;32.57;;;22.00;;
11761;SDS011;5938;47.098;15.474;2022-11-15T23:14:54;32.20;;;20.10;;
11761;SDS011;5938;47.098;15.474;2022-11-15T23:18:58;32.80;;;22.10;;
11761;SDS011;5938;47.098;15.474;2022-11-15T23:23:02;34.80;;;22.20;;
11761;SDS011;5938;47.098;15.474;2022-11-15T23:27:06;29.47;;;20.57;;
11761;SDS011;5938;47.098;15.474;2022-11-15T23:31:11;28.80;;;19.63;;
11761;SDS011;5938;47.098;15.474;2022-11-15T23:35:31;27.50;;;19.00;;
11761;SDS011;5938;47.098;15.474;2022-11-15T23:39:35;32.80;;;21.83;;
11761;SDS011;5938;47.098;15.474;2022-11-15T23:43:38;35.30;;;23.10;;
11761;SDS011;5938;47.098;15.474;2022-11-15T23:47:44;34.47;;;21.60;;
11761;SDS011;5938;47.098;15.474;2022-11-15T23:51:47;34.00;;;21.67;;
11761;SDS011;5938;47.098;15.474;2022-11-15T23:55:54;31.40;;;20.20;;
11761;SDS011;5938;47.098;15.474;2022-11-15T23:59:59;38.73;;;22.37;;
